sensor_id;sensor_type;location;lat;lon;timestamp;pressure;altitude;pressure_sealevel;temperature;humidity
45129;BME280;35512;56.312;101.728;2023-07-13T00:01:29;96298.00;;;15.10;88.82
45129;BME280;35512;56.312;101.728;2023-07-13T00:03:59;96310.00;;;15.23;88.94
45129;BME280;35512;56.312;101.728;2023-07-13T00:06:29;96313.88;;;15.26;88.93
45129;BME280;35512;56.312;101.728;2023-07-13T00:09:01;96317.38;;;15.30;88.88
45129;BME280;35512;56.312;101.728;2023-07-13T00:11:30;96315.75;;;15.36;89.08
45129;BME280;35512;56.312;101.728;2023-07-13T00:13:59;96315.72;;;15.43;89.17
45129;BME280;35512;56.312;101.728;2023-07-13T00:16:28;96313.75;;;15.54;89.11
45129;BME280;35512;56.312;101.728;2023-07-13T00:18:57;96323.38;;;15.66;88.99
45129;BME280;35512;56.312;101.728;2023-07-13T00:21:29;96315.94;;;15.74;88.89
45129;BME280;35512;56.312;101.728;2023-07-13T00:23:58;96326.41;;;15.86;88.98
45129;BME280;35512;56.312;101.728;2023-07-13T00:26:29;96321.28;;;15.96;88.67
45129;BME280;35512;56.312;101.728;2023-07-13T00:29:01;96315.44;;;15.97;88.82
45129;BME280;35512;56.312;101.728;2023-07-13T00:31:30;96322.75;;;16.08;88.70
45129;BME280;35512;56.312;101.728;2023-07-13T00:33:59;96325.81;;;16.13;88.74
45129;BME280;35512;56.312;101.728;2023-07-13T00:36:30;96326.97;;;16.16;88.67
45129;BME280;35512;56.312;101.728;2023-07-13T00:39:00;96325.78;;;16.17;88.61
45129;BME280;35512;56.312;101.728;2023-07-13T00:41:29;96324.19;;;16.23;88.59
45129;BME280;35512;56.312;101.728;2023-07-13T00:43:58;96321.00;;;16.32;88.69
45129;BME280;35512;56.312;101.728;2023-07-13T00:46:30;96315.91;;;16.37;88.63
45129;BME280;35512;56.312;101.728;2023-07-13T00:49:03;96316.97;;;16.47;88.62
45129;BME280;35512;56.312;101.728;2023-07-13T00:51:38;96313.81;;;16.52;88.49
45129;BME280;35512;56.312;101.728;2023-07-13T00:54:12;96321.50;;;16.65;88.58
45129;BME280;35512;56.312;101.728;2023-07-13T00:56:43;96329.56;;;16.76;88.43
45129;BME280;35512;56.312;101.728;2023-07-13T00:59:15;96322.78;;;16.95;88.68
45129;BME280;35512;56.312;101.728;2023-07-13T01:01:47;96329.06;;;17.22;88.71
45129;BME280;35512;56.312;101.728;2023-07-13T01:04:18;96332.25;;;17.48;88.81
45129;BME280;35512;56.312;101.728;2023-07-13T01:06:47;96323.69;;;17.77;88.90
45129;BME280;35512;56.312;101.728;2023-07-13T01:09:16;96322.09;;;18.07;88.93
45129;BME280;35512;56.312;101.728;2023-07-13T01:11:47;96320.09;;;18.35;88.74
45129;BME280;35512;56.312;101.728;2023-07-13T01:14:17;96329.75;;;18.63;88.91
45129;BME280;35512;56.312;101.728;2023-07-13T01:16:47;96327.31;;;18.92;88.83
45129;BME280;35512;56.312;101.728;2023-07-13T01:19:29;96331.44;;;19.21;88.80
45129;BME280;35512;56.312;101.728;2023-07-13T01:22:07;96335.25;;;19.47;88.63
45129;BME280;35512;56.312;101.728;2023-07-13T01:24:39;96333.94;;;19.72;88.40
45129;BME280;35512;56.312;101.728;2023-07-13T01:27:11;96328.34;;;19.96;88.25
45129;BME280;35512;56.312;101.728;2023-07-13T01:29:42;96326.81;;;20.11;88.08
45129;BME280;35512;56.312;101.728;2023-07-13T01:32:18;96330.31;;;20.28;87.83
45129;BME280;35512;56.312;101.728;2023-07-13T01:34:55;96330.47;;;20.54;87.92
45129;BME280;35512;56.312;101.728;2023-07-13T01:37:25;96323.44;;;20.69;87.15
45129;BME280;35512;56.312;101.728;2023-07-13T01:39:55;96325.31;;;20.89;86.89
45129;BME280;35512;56.312;101.728;2023-07-13T01:42:24;96325.50;;;21.11;86.93
45129;BME280;35512;56.312;101.728;2023-07-13T01:44:53;96326.75;;;21.36;86.99
45129;BME280;35512;56.312;101.728;2023-07-13T01:47:23;96320.34;;;21.55;86.52
45129;BME280;35512;56.312;101.728;2023-07-13T01:49:52;96325.22;;;21.90;85.71
45129;BME280;35512;56.312;101.728;2023-07-13T01:52:21;96312.53;;;22.79;83.97
45129;BME280;35512;56.312;101.728;2023-07-13T01:54:52;96324.50;;;24.05;81.40
45129;BME280;35512;56.312;101.728;2023-07-13T01:57:21;96325.22;;;25.58;80.04
45129;BME280;35512;56.312;101.728;2023-07-13T01:59:50;96322.66;;;26.94;80.61
45129;BME280;35512;56.312;101.728;2023-07-13T02:02:21;96319.44;;;28.15;80.62
45129;BME280;35512;56.312;101.728;2023-07-13T02:04:50;96314.53;;;29.28;80.17
45129;BME280;35512;56.312;101.728;2023-07-13T02:07:21;96321.44;;;30.34;79.40
45129;BME280;35512;56.312;101.728;2023-07-13T02:09:50;96331.50;;;31.29;78.03
45129;BME280;35512;56.312;101.728;2023-07-13T02:12:22;96323.66;;;32.13;77.47
45129;BME280;35512;56.312;101.728;2023-07-13T02:14:51;96316.56;;;32.99;76.13
45129;BME280;35512;56.312;101.728;2023-07-13T02:17:21;96314.50;;;33.47;74.91
45129;BME280;35512;56.312;101.728;2023-07-13T02:19:50;96319.59;;;33.84;73.58
45129;BME280;35512;56.312;101.728;2023-07-13T02:22:20;96318.63;;;34.07;72.79
45129;BME280;35512;56.312;101.728;2023-07-13T02:24:49;96318.66;;;34.31;72.27
45129;BME280;35512;56.312;101.728;2023-07-13T02:27:19;96308.75;;;34.74;71.63
45129;BME280;35512;56.312;101.728;2023-07-13T02:29:49;96306.44;;;34.97;71.13
45129;BME280;35512;56.312;101.728;2023-07-13T02:32:21;96314.25;;;35.43;70.61
45129;BME280;35512;56.312;101.728;2023-07-13T02:34:52;96316.88;;;35.54;70.24
45129;BME280;35512;56.312;101.728;2023-07-13T02:37:22;96312.28;;;35.70;69.35
45129;BME280;35512;56.312;101.728;2023-07-13T02:39:51;96314.56;;;36.17;68.97
45129;BME280;35512;56.312;101.728;2023-07-13T02:42:20;96308.97;;;36.58;67.94
45129;BME280;35512;56.312;101.728;2023-07-13T02:44:49;96306.78;;;36.91;66.56
45129;BME280;35512;56.312;101.728;2023-07-13T02:47:19;96306.56;;;37.02;64.84
45129;BME280;35512;56.312;101.728;2023-07-13T02:49:48;96311.88;;;37.27;64.22
45129;BME280;35512;56.312;101.728;2023-07-13T02:52:17;96306.75;;;37.04;62.95
45129;BME280;35512;56.312;101.728;2023-07-13T02:54:47;96301.00;;;37.10;62.95
45129;BME280;35512;56.312;101.728;2023-07-13T02:57:16;96296.22;;;37.52;61.90
45129;BME280;35512;56.312;101.728;2023-07-13T02:59:45;96305.41;;;37.53;60.08
45129;BME280;35512;56.312;101.728;2023-07-13T03:02:14;96306.50;;;37.71;59.03
45129;BME280;35512;56.312;101.728;2023-07-13T03:04:44;96299.00;;;36.16;58.37
45129;BME280;35512;56.312;101.728;2023-07-13T03:07:14;96295.75;;;36.12;59.36
45129;BME280;35512;56.312;101.728;2023-07-13T03:09:47;96292.41;;;36.81;57.45
45129;BME280;35512;56.312;101.728;2023-07-13T03:12:16;96281.72;;;37.48;56.05
45129;BME280;35512;56.312;101.728;2023-07-13T03:14:45;96291.84;;;38.15;55.12
45129;BME280;35512;56.312;101.728;2023-07-13T03:17:14;96287.41;;;38.56;53.21
45129;BME280;35512;56.312;101.728;2023-07-13T03:19:44;96274.19;;;38.80;51.79
45129;BME280;35512;56.312;101.728;2023-07-13T03:22:13;96267.97;;;39.26;50.42
45129;BME280;35512;56.312;101.728;2023-07-13T03:24:44;96274.03;;;39.84;49.11
45129;BME280;35512;56.312;101.728;2023-07-13T03:27:14;96272.38;;;38.61;47.09
45129;BME280;35512;56.312;101.728;2023-07-13T03:29:44;96281.03;;;35.60;49.28
45129;BME280;35512;56.312;101.728;2023-07-13T03:32:15;96270.41;;;32.69;50.57
45129;BME280;35512;56.312;101.728;2023-07-13T03:34:44;96271.50;;;30.74;51.27
45129;BME280;35512;56.312;101.728;2023-07-13T03:37:14;96271.13;;;29.36;52.04
45129;BME280;35512;56.312;101.728;2023-07-13T03:39:43;96273.44;;;28.29;52.01
45129;BME280;35512;56.312;101.728;2023-07-13T03:42:12;96274.94;;;27.74;52.11
45129;BME280;35512;56.312;101.728;2023-07-13T03:44:41;96266.19;;;27.81;51.87
45129;BME280;35512;56.312;101.728;2023-07-13T03:47:14;96275.56;;;28.75;49.96
45129;BME280;35512;56.312;101.728;2023-07-13T03:49:46;96264.53;;;31.46;46.94
45129;BME280;35512;56.312;101.728;2023-07-13T03:52:15;96260.25;;;31.62;44.63
45129;BME280;35512;56.312;101.728;2023-07-13T03:54:52;96255.31;;;30.83;43.77
45129;BME280;35512;56.312;101.728;2023-07-13T03:57:22;96245.19;;;32.28;43.22
45129;BME280;35512;56.312;101.728;2023-07-13T03:59:51;96243.94;;;34.59;40.75
45129;BME280;35512;56.312;101.728;2023-07-13T04:02:21;96250.25;;;36.41;38.93
45129;BME280;35512;56.312;101.728;2023-07-13T04:04:51;96246.13;;;37.37;36.47
45129;BME280;35512;56.312;101.728;2023-07-13T04:07:24;96246.78;;;37.94;35.06
45129;BME280;35512;56.312;101.728;2023-07-13T04:09:53;96245.22;;;38.87;34.32
45129;BME280;35512;56.312;101.728;2023-07-13T04:12:23;96247.09;;;39.60;33.42
45129;BME280;35512;56.312;101.728;2023-07-13T04:14:52;96234.19;;;40.36;33.25
45129;BME280;35512;56.312;101.728;2023-07-13T04:17:21;96227.72;;;41.07;32.65
45129;BME280;35512;56.312;101.728;2023-07-13T04:19:50;96234.16;;;41.58;31.38
45129;BME280;35512;56.312;101.728;2023-07-13T04:22:19;96239.59;;;41.89;30.38
45129;BME280;35512;56.312;101.728;2023-07-13T04:24:48;96233.34;;;42.08;29.68
45129;BME280;35512;56.312;101.728;2023-07-13T04:27:18;96238.34;;;42.17;28.76
45129;BME280;35512;56.312;101.728;2023-07-13T04:29:47;96242.09;;;42.20;28.17
45129;BME280;35512;56.312;101.728;2023-07-13T04:32:16;96231.34;;;42.18;27.27
45129;BME280;35512;56.312;101.728;2023-07-13T04:34:45;96231.19;;;42.51;27.22
45129;BME280;35512;56.312;101.728;2023-07-13T04:37:14;96228.72;;;42.83;26.46
45129;BME280;35512;56.312;101.728;2023-07-13T04:39:43;96232.34;;;41.96;24.24
45129;BME280;35512;56.312;101.728;2023-07-13T04:42:12;96245.78;;;40.71;25.71
45129;BME280;35512;56.312;101.728;2023-07-13T04:44:41;96227.63;;;37.92;26.37
45129;BME280;35512;56.312;101.728;2023-07-13T04:47:10;96227.00;;;36.00;28.10
45129;BME280;35512;56.312;101.728;2023-07-13T04:49:39;96213.56;;;35.79;27.11
45129;BME280;35512;56.312;101.728;2023-07-13T04:52:08;96208.81;;;36.28;26.51
45129;BME280;35512;56.312;101.728;2023-07-13T04:54:38;96208.25;;;34.59;26.58
45129;BME280;35512;56.312;101.728;2023-07-13T04:57:07;96210.97;;;34.65;28.32
45129;BME280;35512;56.312;101.728;2023-07-13T04:59:37;96194.84;;;34.08;27.03
45129;BME280;35512;56.312;101.728;2023-07-13T05:02:06;96202.38;;;31.85;27.70
45129;BME280;35512;56.312;101.728;2023-07-13T05:04:36;96206.94;;;32.59;28.30
45129;BME280;35512;56.312;101.728;2023-07-13T05:07:09;96209.91;;;34.49;26.79
45129;BME280;35512;56.312;101.728;2023-07-13T05:09:38;96204.81;;;35.04;25.91
45129;BME280;35512;56.312;101.728;2023-07-13T05:12:09;96203.44;;;33.91;26.75
45129;BME280;35512;56.312;101.728;2023-07-13T05:14:38;96198.31;;;31.75;27.99
45129;BME280;35512;56.312;101.728;2023-07-13T05:17:07;96196.84;;;31.12;29.54
45129;BME280;35512;56.312;101.728;2023-07-13T05:19:36;96192.00;;;31.52;29.31
45129;BME280;35512;56.312;101.728;2023-07-13T05:22:06;96191.06;;;30.38;28.94
45129;BME280;35512;56.312;101.728;2023-07-13T05:24:35;96185.34;;;28.97;29.74
45129;BME280;35512;56.312;101.728;2023-07-13T05:27:04;96189.00;;;28.82;30.43
45129;BME280;35512;56.312;101.728;2023-07-13T05:29:33;96181.69;;;28.38;30.79
45129;BME280;35512;56.312;101.728;2023-07-13T05:32:02;96165.66;;;27.51;31.04
45129;BME280;35512;56.312;101.728;2023-07-13T05:34:32;96170.06;;;28.13;31.65
45129;BME280;35512;56.312;101.728;2023-07-13T05:37:01;96167.13;;;30.86;30.97
45129;BME280;35512;56.312;101.728;2023-07-13T05:39:30;96166.03;;;33.33;28.88
45129;BME280;35512;56.312;101.728;2023-07-13T05:41:59;96172.19;;;35.20;27.11
45129;BME280;35512;56.312;101.728;2023-07-13T05:44:28;96160.97;;;36.68;26.66
45129;BME280;35512;56.312;101.728;2023-07-13T05:46:57;96155.06;;;37.35;25.27
45129;BME280;35512;56.312;101.728;2023-07-13T05:49:27;96150.84;;;37.49;24.38
45129;BME280;35512;56.312;101.728;2023-07-13T05:51:56;96147.84;;;38.05;24.22
45129;BME280;35512;56.312;101.728;2023-07-13T05:54:26;96148.41;;;38.40;24.08
45129;BME280;35512;56.312;101.728;2023-07-13T05:56:58;96155.66;;;37.62;23.76
45129;BME280;35512;56.312;101.728;2023-07-13T05:59:28;96144.47;;;37.49;22.96
45129;BME280;35512;56.312;101.728;2023-07-13T06:01:57;96136.16;;;36.45;23.25
45129;BME280;35512;56.312;101.728;2023-07-13T06:04:27;96144.19;;;33.81;24.57
45129;BME280;35512;56.312;101.728;2023-07-13T06:06:56;96137.25;;;31.04;26.25
45129;BME280;35512;56.312;101.728;2023-07-13T06:09:25;96138.78;;;30.05;27.88
45129;BME280;35512;56.312;101.728;2023-07-13T06:11:54;96131.09;;;31.62;27.10
45129;BME280;35512;56.312;101.728;2023-07-13T06:14:23;96122.56;;;33.82;26.12
45129;BME280;35512;56.312;101.728;2023-07-13T06:16:52;96121.50;;;35.72;25.38
45129;BME280;35512;56.312;101.728;2023-07-13T06:19:21;96120.34;;;36.56;24.15
45129;BME280;35512;56.312;101.728;2023-07-13T06:21:50;96110.75;;;36.72;22.93
45129;BME280;35512;56.312;101.728;2023-07-13T06:24:19;96118.81;;;37.31;22.96
45129;BME280;35512;56.312;101.728;2023-07-13T06:26:48;96110.63;;;36.78;23.08
45129;BME280;35512;56.312;101.728;2023-07-13T06:29:17;96113.00;;;34.53;23.46
45129;BME280;35512;56.312;101.728;2023-07-13T06:31:46;96096.50;;;31.88;25.44
45129;BME280;35512;56.312;101.728;2023-07-13T06:34:18;96100.59;;;31.87;26.52
45129;BME280;35512;56.312;101.728;2023-07-13T06:36:47;96106.00;;;32.32;25.56
45129;BME280;35512;56.312;101.728;2023-07-13T06:39:17;96099.38;;;32.77;25.54
45129;BME280;35512;56.312;101.728;2023-07-13T06:41:46;96092.44;;;34.32;24.81
45129;BME280;35512;56.312;101.728;2023-07-13T06:44:15;96098.19;;;35.91;23.85
45129;BME280;35512;56.312;101.728;2023-07-13T06:46:44;96099.59;;;36.11;22.41
45129;BME280;35512;56.312;101.728;2023-07-13T06:49:13;96091.38;;;35.99;23.10
45129;BME280;35512;56.312;101.728;2023-07-13T06:51:42;96078.63;;;36.46;22.95
45129;BME280;35512;56.312;101.728;2023-07-13T06:54:11;96078.88;;;36.35;22.64
45129;BME280;35512;56.312;101.728;2023-07-13T06:56:40;96065.91;;;35.84;22.63
45129;BME280;35512;56.312;101.728;2023-07-13T06:59:09;96075.75;;;34.40;23.88
45129;BME280;35512;56.312;101.728;2023-07-13T07:01:42;96073.91;;;32.80;24.26
45129;BME280;35512;56.312;101.728;2023-07-13T07:04:11;96076.13;;;32.10;25.15
45129;BME280;35512;56.312;101.728;2023-07-13T07:06:40;96069.19;;;32.64;24.67
45129;BME280;35512;56.312;101.728;2023-07-13T07:09:09;96067.06;;;33.61;23.93
45129;BME280;35512;56.312;101.728;2023-07-13T07:11:39;96061.41;;;33.12;23.96
45129;BME280;35512;56.312;101.728;2023-07-13T07:14:28;96050.88;;;32.68;24.74
45129;BME280;35512;56.312;101.728;2023-07-13T07:16:57;96061.13;;;33.65;24.09
45129;BME280;35512;56.312;101.728;2023-07-13T07:19:30;96061.63;;;34.26;22.92
45129;BME280;35512;56.312;101.728;2023-07-13T07:21:59;96056.94;;;33.77;23.74
45129;BME280;35512;56.312;101.728;2023-07-13T07:24:31;96050.75;;;34.42;23.16
45129;BME280;35512;56.312;101.728;2023-07-13T07:27:02;96036.63;;;33.02;23.55
45129;BME280;35512;56.312;101.728;2023-07-13T07:29:34;96043.66;;;32.01;23.93
45129;BME280;35512;56.312;101.728;2023-07-13T07:32:12;96038.31;;;33.11;24.22
45129;BME280;35512;56.312;101.728;2023-07-13T07:35:01;96026.38;;;33.11;23.78
45129;BME280;35512;56.312;101.728;2023-07-13T07:37:31;96026.16;;;33.52;23.63
45129;BME280;35512;56.312;101.728;2023-07-13T07:40:03;96029.38;;;34.19;23.63
45129;BME280;35512;56.312;101.728;2023-07-13T07:42:35;96028.19;;;35.12;22.86
45129;BME280;35512;56.312;101.728;2023-07-13T07:45:04;96017.84;;;35.47;21.93
45129;BME280;35512;56.312;101.728;2023-07-13T07:47:33;96020.31;;;35.24;22.52
45129;BME280;35512;56.312;101.728;2023-07-13T07:50:02;96015.22;;;35.09;21.89
45129;BME280;35512;56.312;101.728;2023-07-13T07:52:32;96013.25;;;34.45;22.30
45129;BME280;35512;56.312;101.728;2023-07-13T07:55:01;96014.38;;;32.85;23.25
45129;BME280;35512;56.312;101.728;2023-07-13T07:57:33;95999.88;;;31.79;24.24
45129;BME280;35512;56.312;101.728;2023-07-13T08:00:06;96000.66;;;30.35;24.65
45129;BME280;35512;56.312;101.728;2023-07-13T08:02:56;96005.16;;;28.90;26.36
45129;BME280;35512;56.312;101.728;2023-07-13T08:05:45;96001.19;;;28.06;27.01
45129;BME280;35512;56.312;101.728;2023-07-13T08:08:35;95993.63;;;27.39;27.87
45129;BME280;35512;56.312;101.728;2023-07-13T08:11:05;95993.63;;;27.04;28.45
45129;BME280;35512;56.312;101.728;2023-07-13T08:13:39;95987.97;;;26.62;29.08
45129;BME280;35512;56.312;101.728;2023-07-13T08:16:09;95985.44;;;26.29;29.58
45129;BME280;35512;56.312;101.728;2023-07-13T08:18:38;95986.28;;;26.05;29.77
45129;BME280;35512;56.312;101.728;2023-07-13T08:21:08;95983.94;;;25.74;30.36
45129;BME280;35512;56.312;101.728;2023-07-13T08:23:38;95977.22;;;25.51;30.40
45129;BME280;35512;56.312;101.728;2023-07-13T08:26:07;95968.75;;;25.30;31.08
45129;BME280;35512;56.312;101.728;2023-07-13T08:28:36;95974.63;;;24.98;31.43
45129;BME280;35512;56.312;101.728;2023-07-13T08:31:06;95976.97;;;24.91;32.10
45129;BME280;35512;56.312;101.728;2023-07-13T08:33:36;95969.88;;;24.99;32.69
45129;BME280;35512;56.312;101.728;2023-07-13T08:36:06;95952.13;;;24.91;33.42
45129;BME280;35512;56.312;101.728;2023-07-13T08:38:39;95973.91;;;24.55;34.50
45129;BME280;35512;56.312;101.728;2023-07-13T08:41:21;95957.53;;;24.00;35.11
45129;BME280;35512;56.312;101.728;2023-07-13T08:43:54;95966.09;;;23.83;35.41
45129;BME280;35512;56.312;101.728;2023-07-13T08:46:44;95965.94;;;23.68;35.45
45129;BME280;35512;56.312;101.728;2023-07-13T08:49:19;95958.00;;;23.61;35.47
45129;BME280;35512;56.312;101.728;2023-07-13T08:57:11;95948.19;;;23.23;36.13
45129;BME280;35512;56.312;101.728;2023-07-13T08:59:41;95947.44;;;23.41;35.85
45129;BME280;35512;56.312;101.728;2023-07-13T09:05:11;95946.53;;;23.35;36.07
45129;BME280;35512;56.312;101.728;2023-07-13T09:10:49;95943.91;;;23.77;35.58
45129;BME280;35512;56.312;101.728;2023-07-13T09:16:18;95939.19;;;23.59;36.15
45129;BME280;35512;56.312;101.728;2023-07-13T09:18:50;95945.16;;;23.21;36.82
45129;BME280;35512;56.312;101.728;2023-07-13T09:21:26;95939.94;;;23.13;37.33
45129;BME280;35512;56.312;101.728;2023-07-13T09:24:01;95939.03;;;23.17;37.70
45129;BME280;35512;56.312;101.728;2023-07-13T09:26:32;95922.81;;;23.46;37.52
45129;BME280;35512;56.312;101.728;2023-07-13T09:29:16;95924.78;;;23.65;37.34
45129;BME280;35512;56.312;101.728;2023-07-13T09:31:49;95922.16;;;23.70;37.07
45129;BME280;35512;56.312;101.728;2023-07-13T09:34:21;95925.84;;;23.67;37.25
45129;BME280;35512;56.312;101.728;2023-07-13T09:36:50;95918.22;;;23.53;37.37
45129;BME280;35512;56.312;101.728;2023-07-13T09:39:30;95924.34;;;23.29;37.97
45129;BME280;35512;56.312;101.728;2023-07-13T09:44:34;95922.97;;;23.15;38.54
45129;BME280;35512;56.312;101.728;2023-07-13T09:47:16;95909.97;;;23.25;38.71
45129;BME280;35512;56.312;101.728;2023-07-13T09:49:47;95909.34;;;23.21;38.73
45129;BME280;35512;56.312;101.728;2023-07-13T09:52:16;95918.03;;;23.10;38.98
45129;BME280;35512;56.312;101.728;2023-07-13T09:54:48;95906.38;;;22.87;39.46
45129;BME280;35512;56.312;101.728;2023-07-13T09:57:22;95911.41;;;22.70;39.97
45129;BME280;35512;56.312;101.728;2023-07-13T10:00:01;95899.78;;;22.75;40.03
45129;BME280;35512;56.312;101.728;2023-07-13T10:02:35;95910.34;;;22.86;39.96
45129;BME280;35512;56.312;101.728;2023-07-13T10:05:06;95912.38;;;23.13;39.76
45129;BME280;35512;56.312;101.728;2023-07-13T10:07:41;95909.66;;;23.23;39.74
45129;BME280;35512;56.312;101.728;2023-07-13T10:10:22;95905.19;;;23.16;39.99
45129;BME280;35512;56.312;101.728;2023-07-13T10:12:51;95899.41;;;23.23;39.95
45129;BME280;35512;56.312;101.728;2023-07-13T10:15:22;95897.56;;;23.29;39.92
45129;BME280;35512;56.312;101.728;2023-07-13T10:17:55;95905.06;;;23.20;40.32
45129;BME280;35512;56.312;101.728;2023-07-13T10:20:27;95917.56;;;23.02;40.48
45129;BME280;35512;56.312;101.728;2023-07-13T10:23:02;95903.50;;;22.91;40.72
45129;BME280;35512;56.312;101.728;2023-07-13T10:25:37;95894.16;;;22.88;40.94
45129;BME280;35512;56.312;101.728;2023-07-13T10:28:29;95885.75;;;22.92;41.03
45129;BME280;35512;56.312;101.728;2023-07-13T10:31:01;95891.59;;;23.12;40.67
45129;BME280;35512;56.312;101.728;2023-07-13T10:33:31;95889.00;;;23.27;40.46
45129;BME280;35512;56.312;101.728;2023-07-13T10:38:47;95870.59;;;22.96;40.58
45129;BME280;35512;56.312;101.728;2023-07-13T10:41:21;95868.88;;;22.71;41.08
45129;BME280;35512;56.312;101.728;2023-07-13T10:43:54;95874.81;;;22.51;41.62
45129;BME280;35512;56.312;101.728;2023-07-13T10:46:26;95858.44;;;22.38;41.80
45129;BME280;35512;56.312;101.728;2023-07-13T10:49:01;95868.66;;;22.38;42.02
45129;BME280;35512;56.312;101.728;2023-07-13T10:51:33;95862.38;;;22.37;42.22
45129;BME280;35512;56.312;101.728;2023-07-13T10:54:17;95860.59;;;22.43;42.44
45129;BME280;35512;56.312;101.728;2023-07-13T10:57:07;95850.97;;;22.48;42.46
45129;BME280;35512;56.312;101.728;2023-07-13T10:59:38;95861.81;;;22.52;42.50
45129;BME280;35512;56.312;101.728;2023-07-13T11:02:15;95856.31;;;22.52;42.59
45129;BME280;35512;56.312;101.728;2023-07-13T11:04:53;95855.56;;;22.51;42.70
45129;BME280;35512;56.312;101.728;2023-07-13T11:07:25;95856.03;;;22.50;42.95
45129;BME280;35512;56.312;101.728;2023-07-13T11:10:03;95852.81;;;22.51;42.88
45129;BME280;35512;56.312;101.728;2023-07-13T11:15:31;95862.34;;;22.96;42.49
45129;BME280;35512;56.312;101.728;2023-07-13T11:18:11;95860.06;;;22.95;42.26
45129;BME280;35512;56.312;101.728;2023-07-13T11:20:49;95850.53;;;22.68;42.68
45129;BME280;35512;56.312;101.728;2023-07-13T11:23:26;95850.34;;;22.53;42.68
45129;BME280;35512;56.312;101.728;2023-07-13T11:25:56;95846.06;;;22.52;42.94
45129;BME280;35512;56.312;101.728;2023-07-13T11:28:27;95837.22;;;22.57;43.08
45129;BME280;35512;56.312;101.728;2023-07-13T11:31:04;95836.94;;;22.74;42.92
45129;BME280;35512;56.312;101.728;2023-07-13T11:36:16;95835.72;;;22.75;43.03
45129;BME280;35512;56.312;101.728;2023-07-13T11:41:46;95843.63;;;22.54;43.30
45129;BME280;35512;56.312;101.728;2023-07-13T11:44:20;95843.00;;;22.41;43.54
45129;BME280;35512;56.312;101.728;2023-07-13T11:46:55;95843.69;;;22.23;43.89
45129;BME280;35512;56.312;101.728;2023-07-13T11:49:28;95845.16;;;22.05;44.06
45129;BME280;35512;56.312;101.728;2023-07-13T11:52:00;95845.06;;;21.87;44.31
45129;BME280;35512;56.312;101.728;2023-07-13T11:54:33;95839.97;;;21.67;44.90
45129;BME280;35512;56.312;101.728;2023-07-13T11:59:39;95837.69;;;21.52;45.04
45129;BME280;35512;56.312;101.728;2023-07-13T12:02:23;95834.06;;;21.55;45.23
45129;BME280;35512;56.312;101.728;2023-07-13T12:04:55;95841.28;;;21.62;44.99
45129;BME280;35512;56.312;101.728;2023-07-13T12:07:29;95836.75;;;21.68;45.14
45129;BME280;35512;56.312;101.728;2023-07-13T12:12:36;95826.00;;;21.83;44.78
45129;BME280;35512;56.312;101.728;2023-07-13T12:15:11;95824.16;;;21.80;44.93
45129;BME280;35512;56.312;101.728;2023-07-13T12:17:41;95833.78;;;21.85;45.12
45129;BME280;35512;56.312;101.728;2023-07-13T12:20:28;95835.72;;;21.75;45.10
45129;BME280;35512;56.312;101.728;2023-07-13T12:23:05;95832.66;;;21.73;45.22
45129;BME280;35512;56.312;101.728;2023-07-13T12:25:38;95831.25;;;21.68;45.47
45129;BME280;35512;56.312;101.728;2023-07-13T12:31:04;95827.69;;;21.58;45.78
45129;BME280;35512;56.312;101.728;2023-07-13T12:33:39;95818.94;;;21.51;45.74
45129;BME280;35512;56.312;101.728;2023-07-13T12:36:12;95826.41;;;21.50;45.96
45129;BME280;35512;56.312;101.728;2023-07-13T12:38:44;95827.88;;;21.42;46.21
45129;BME280;35512;56.312;101.728;2023-07-13T12:41:15;95832.28;;;21.39;46.32
45129;BME280;35512;56.312;101.728;2023-07-13T12:43:45;95821.44;;;21.36;46.57
45129;BME280;35512;56.312;101.728;2023-07-13T12:46:21;95817.59;;;21.33;46.61
45129;BME280;35512;56.312;101.728;2023-07-13T12:48:54;95799.09;;;21.24;46.82
45129;BME280;35512;56.312;101.728;2023-07-13T12:51:40;95805.34;;;21.25;46.96
45129;BME280;35512;56.312;101.728;2023-07-13T12:54:16;95803.63;;;21.18;47.06
45129;BME280;35512;56.312;101.728;2023-07-13T12:56:50;95802.53;;;21.16;47.24
45129;BME280;35512;56.312;101.728;2023-07-13T12:59:22;95796.56;;;21.08;47.36
45129;BME280;35512;56.312;101.728;2023-07-13T13:01:53;95794.31;;;20.93;47.59
45129;BME280;35512;56.312;101.728;2023-07-13T13:04:23;95797.41;;;20.83;47.72
45129;BME280;35512;56.312;101.728;2023-07-13T13:07:05;95790.00;;;20.70;47.95
45129;BME280;35512;56.312;101.728;2023-07-13T13:09:37;95794.75;;;20.70;48.15
45129;BME280;35512;56.312;101.728;2023-07-13T13:12:07;95787.34;;;20.67;48.27
45129;BME280;35512;56.312;101.728;2023-07-13T13:14:36;95794.50;;;20.64;48.29
45129;BME280;35512;56.312;101.728;2023-07-13T13:17:19;95787.59;;;20.59;48.47
45129;BME280;35512;56.312;101.728;2023-07-13T13:19:49;95789.59;;;20.59;48.67
45129;BME280;35512;56.312;101.728;2023-07-13T13:22:18;95783.47;;;20.55;48.48
45129;BME280;35512;56.312;101.728;2023-07-13T13:24:48;95774.44;;;20.54;48.81
45129;BME280;35512;56.312;101.728;2023-07-13T13:27:21;95768.78;;;20.49;48.77
45129;BME280;35512;56.312;101.728;2023-07-13T13:29:51;95766.03;;;20.49;49.05
45129;BME280;35512;56.312;101.728;2023-07-13T13:32:20;95759.91;;;20.44;48.96
45129;BME280;35512;56.312;101.728;2023-07-13T13:34:49;95762.34;;;20.42;49.19
45129;BME280;35512;56.312;101.728;2023-07-13T13:37:21;95754.78;;;20.34;49.25
45129;BME280;35512;56.312;101.728;2023-07-13T13:39:51;95768.47;;;20.34;49.43